sensor_id;sensor_type;location;lat;lon;timestamp;P1;durP1;ratioP1;P2;durP2;ratioP2
8466;SDS011;4270;48.148;11.648;2022-09-06T00:00:35;6.77;;;6.10;;
8466;SDS011;4270;48.148;11.648;2022-09-06T00:03:00;9.80;;;6.00;;
8466;SDS011;4270;48.148;11.648;2022-09-06T00:05:26;7.90;;;6.10;;
8466;SDS011;4270;48.148;11.648;2022-09-06T00:07:51;8.90;;;6.17;;
8466;SDS011;4270;48.148;11.648;2022-09-06T00:10:16;7.50;;;6.00;;
8466;SDS011;4270;48.148;11.648;2022-09-06T00:12:42;8.10;;;6.00;;
8466;SDS011;4270;48.148;11.648;2022-09-06T00:15:07;9.67;;;6.27;;
8466;SDS011;4270;48.148;11.648;2022-09-06T00:17:32;7.50;;;6.80;;
8466;SDS011;4270;48.148;11.648;2022-09-06T00:19:58;7.60;;;6.80;;
8466;SDS011;4270;48.148;11.648;2022-09-06T00:22:23;7.73;;;6.30;;
8466;SDS011;4270;48.148;11.648;2022-09-06T00:24:48;6.83;;;6.13;;
8466;SDS011;4270;48.148;11.648;2022-09-06T00:27:13;7.10;;;6.40;;
8466;SDS011;4270;48.148;11.648;2022-09-06T00:29:38;6.90;;;6.07;;
8466;SDS011;4270;48.148;11.648;2022-09-06T00:32:04;7.17;;;6.53;;
8466;SDS011;4270;48.148;11.648;2022-09-06T00:34:29;8.13;;;6.97;;
8466;SDS011;4270;48.148;11.648;2022-09-06T00:36:54;7.63;;;6.83;;
8466;SDS011;4270;48.148;11.648;2022-09-06T00:39:19;7.90;;;6.57;;
8466;SDS011;4270;48.148;11.648;2022-09-06T00:41:45;7.10;;;6.40;;
8466;SDS011;4270;48.148;11.648;2022-09-06T00:44:10;9.70;;;5.90;;
8466;SDS011;4270;48.148;11.648;2022-09-06T00:46:35;7.80;;;6.97;;
8466;SDS011;4270;48.148;11.648;2022-09-06T00:49:02;10.20;;;7.67;;
8466;SDS011;4270;48.148;11.648;2022-09-06T00:51:29;6.40;;;5.70;;
8466;SDS011;4270;48.148;11.648;2022-09-06T00:53:54;9.00;;;6.57;;
8466;SDS011;4270;48.148;11.648;2022-09-06T00:56:19;10.53;;;6.37;;
8466;SDS011;4270;48.148;11.648;2022-09-06T00:58:45;7.53;;;6.63;;
8466;SDS011;4270;48.148;11.648;2022-09-06T01:01:11;8.23;;;6.83;;
8466;SDS011;4270;48.148;11.648;2022-09-06T01:03:36;7.30;;;6.30;;
8466;SDS011;4270;48.148;11.648;2022-09-06T01:06:09;7.07;;;6.37;;
8466;SDS011;4270;48.148;11.648;2022-09-06T01:17:09;7.50;;;6.80;;
8466;SDS011;4270;48.148;11.648;2022-09-06T01:19:44;7.30;;;5.90;;
8466;SDS011;4270;48.148;11.648;2022-09-06T01:30:07;8.53;;;6.80;;
8466;SDS011;4270;48.148;11.648;2022-09-06T01:35:19;7.37;;;6.57;;
8466;SDS011;4270;48.148;11.648;2022-09-06T01:37:49;6.80;;;6.10;;
8466;SDS011;4270;48.148;11.648;2022-09-06T01:40:14;7.10;;;6.13;;
8466;SDS011;4270;48.148;11.648;2022-09-06T01:42:39;7.33;;;5.90;;
8466;SDS011;4270;48.148;11.648;2022-09-06T01:45:06;6.93;;;6.33;;
8466;SDS011;4270;48.148;11.648;2022-09-06T02:00:16;6.97;;;6.30;;
8466;SDS011;4270;48.148;11.648;2022-09-06T02:05:21;7.10;;;5.60;;
8466;SDS011;4270;48.148;11.648;2022-09-06T02:07:47;7.00;;;6.27;;
8466;SDS011;4270;48.148;11.648;2022-09-06T02:10:24;7.40;;;6.70;;
8466;SDS011;4270;48.148;11.648;2022-09-06T02:12:51;7.77;;;6.97;;
8466;SDS011;4270;48.148;11.648;2022-09-06T02:15:19;8.67;;;6.50;;
8466;SDS011;4270;48.148;11.648;2022-09-06T02:17:47;7.80;;;6.50;;
8466;SDS011;4270;48.148;11.648;2022-09-06T02:20:15;7.60;;;6.40;;
8466;SDS011;4270;48.148;11.648;2022-09-06T02:22:43;9.97;;;7.07;;
8466;SDS011;4270;48.148;11.648;2022-09-06T02:25:09;7.10;;;6.40;;
8466;SDS011;4270;48.148;11.648;2022-09-06T02:27:35;6.93;;;6.20;;
8466;SDS011;4270;48.148;11.648;2022-09-06T02:30:01;7.10;;;6.40;;
8466;SDS011;4270;48.148;11.648;2022-09-06T02:32:27;7.53;;;6.67;;
8466;SDS011;4270;48.148;11.648;2022-09-06T02:34:54;7.67;;;6.87;;
8466;SDS011;4270;48.148;11.648;2022-09-06T02:37:19;7.50;;;6.80;;
8466;SDS011;4270;48.148;11.648;2022-09-06T02:39:46;7.80;;;6.50;;
8466;SDS011;4270;48.148;11.648;2022-09-06T02:42:12;9.60;;;7.10;;
8466;SDS011;4270;48.148;11.648;2022-09-06T02:44:38;8.80;;;6.93;;
8466;SDS011;4270;48.148;11.648;2022-09-06T02:47:03;7.90;;;6.47;;
8466;SDS011;4270;48.148;11.648;2022-09-06T02:49:29;7.13;;;6.43;;
8466;SDS011;4270;48.148;11.648;2022-09-06T02:51:54;7.57;;;6.77;;
8466;SDS011;4270;48.148;11.648;2022-09-06T02:54:20;6.47;;;5.87;;
8466;SDS011;4270;48.148;11.648;2022-09-06T02:56:46;7.40;;;6.37;;
8466;SDS011;4270;48.148;11.648;2022-09-06T02:59:11;6.53;;;5.90;;
8466;SDS011;4270;48.148;11.648;2022-09-06T03:01:36;7.23;;;5.90;;
8466;SDS011;4270;48.148;11.648;2022-09-06T03:04:02;7.73;;;6.37;;
8466;SDS011;4270;48.148;11.648;2022-09-06T03:06:28;8.13;;;6.40;;
8466;SDS011;4270;48.148;11.648;2022-09-06T03:08:53;11.70;;;6.30;;
8466;SDS011;4270;48.148;11.648;2022-09-06T03:11:18;7.37;;;6.63;;
8466;SDS011;4270;48.148;11.648;2022-09-06T03:13:43;7.23;;;6.47;;
8466;SDS011;4270;48.148;11.648;2022-09-06T03:16:08;6.43;;;5.43;;
8466;SDS011;4270;48.148;11.648;2022-09-06T03:18:34;7.50;;;6.30;;
8466;SDS011;4270;48.148;11.648;2022-09-06T03:21:00;7.37;;;6.17;;
8466;SDS011;4270;48.148;11.648;2022-09-06T03:23:26;6.67;;;6.07;;
8466;SDS011;4270;48.148;11.648;2022-09-06T03:25:52;11.20;;;6.90;;
8466;SDS011;4270;48.148;11.648;2022-09-06T03:28:17;8.37;;;6.40;;
8466;SDS011;4270;48.148;11.648;2022-09-06T03:30:43;10.07;;;6.00;;
8466;SDS011;4270;48.148;11.648;2022-09-06T03:33:09;8.50;;;6.27;;
8466;SDS011;4270;48.148;11.648;2022-09-06T03:35:34;6.50;;;5.90;;
8466;SDS011;4270;48.148;11.648;2022-09-06T03:37:59;9.07;;;6.27;;
8466;SDS011;4270;48.148;11.648;2022-09-06T03:40:24;7.07;;;6.37;;
8466;SDS011;4270;48.148;11.648;2022-09-06T03:42:49;8.27;;;6.90;;
8466;SDS011;4270;48.148;11.648;2022-09-06T03:45:14;6.60;;;5.93;;
8466;SDS011;4270;48.148;11.648;2022-09-06T03:47:39;10.00;;;6.53;;
8466;SDS011;4270;48.148;11.648;2022-09-06T03:50:05;8.03;;;6.50;;
8466;SDS011;4270;48.148;11.648;2022-09-06T03:52:30;7.33;;;6.33;;
8466;SDS011;4270;48.148;11.648;2022-09-06T03:54:55;6.83;;;6.20;;
8466;SDS011;4270;48.148;11.648;2022-09-06T03:57:21;6.93;;;6.13;;
8466;SDS011;4270;48.148;11.648;2022-09-06T03:59:46;6.80;;;6.10;;
8466;SDS011;4270;48.148;11.648;2022-09-06T04:02:12;6.97;;;5.60;;
8466;SDS011;4270;48.148;11.648;2022-09-06T04:04:37;7.37;;;6.00;;
8466;SDS011;4270;48.148;11.648;2022-09-06T04:07:02;6.90;;;6.30;;
8466;SDS011;4270;48.148;11.648;2022-09-06T04:09:27;8.47;;;7.03;;
8466;SDS011;4270;48.148;11.648;2022-09-06T04:11:52;7.33;;;6.57;;
8466;SDS011;4270;48.148;11.648;2022-09-06T04:14:17;7.53;;;6.10;;
8466;SDS011;4270;48.148;11.648;2022-09-06T04:16:43;6.72;;;6.07;;
8466;SDS011;4270;48.148;11.648;2022-09-06T04:19:08;8.20;;;6.50;;
8466;SDS011;4270;48.148;11.648;2022-09-06T04:21:33;7.23;;;5.33;;
8466;SDS011;4270;48.148;11.648;2022-09-06T04:23:58;7.80;;;6.80;;
8466;SDS011;4270;48.148;11.648;2022-09-06T04:26:24;7.03;;;6.33;;
8466;SDS011;4270;48.148;11.648;2022-09-06T04:28:49;9.03;;;6.43;;
8466;SDS011;4270;48.148;11.648;2022-09-06T04:31:14;6.90;;;6.27;;
8466;SDS011;4270;48.148;11.648;2022-09-06T04:33:39;8.37;;;5.80;;
8466;SDS011;4270;48.148;11.648;2022-09-06T04:36:06;7.27;;;5.73;;
8466;SDS011;4270;48.148;11.648;2022-09-06T04:38:35;7.20;;;5.53;;
8466;SDS011;4270;48.148;11.648;2022-09-06T04:41:00;8.80;;;6.00;;
8466;SDS011;4270;48.148;11.648;2022-09-06T04:43:26;6.70;;;6.00;;
8466;SDS011;4270;48.148;11.648;2022-09-06T04:45:51;6.60;;;5.90;;
8466;SDS011;4270;48.148;11.648;2022-09-06T04:48:16;7.10;;;6.40;;
8466;SDS011;4270;48.148;11.648;2022-09-06T04:50:41;7.37;;;5.90;;
8466;SDS011;4270;48.148;11.648;2022-09-06T04:53:07;8.83;;;5.83;;
8466;SDS011;4270;48.148;11.648;2022-09-06T04:55:33;8.13;;;5.93;;
8466;SDS011;4270;48.148;11.648;2022-09-06T04:57:59;5.93;;;5.30;;
8466;SDS011;4270;48.148;11.648;2022-09-06T05:00:25;7.27;;;6.30;;
8466;SDS011;4270;48.148;11.648;2022-09-06T05:02:50;6.17;;;5.57;;
8466;SDS011;4270;48.148;11.648;2022-09-06T05:05:15;9.00;;;6.00;;
8466;SDS011;4270;48.148;11.648;2022-09-06T05:07:40;6.40;;;5.63;;
8466;SDS011;4270;48.148;11.648;2022-09-06T05:10:05;6.30;;;5.60;;
8466;SDS011;4270;48.148;11.648;2022-09-06T05:12:31;7.80;;;6.63;;
8466;SDS011;4270;48.148;11.648;2022-09-06T05:14:56;7.60;;;6.00;;
8466;SDS011;4270;48.148;11.648;2022-09-06T05:17:21;7.93;;;5.83;;
8466;SDS011;4270;48.148;11.648;2022-09-06T05:19:46;9.20;;;5.90;;
8466;SDS011;4270;48.148;11.648;2022-09-06T05:22:12;8.07;;;6.10;;
8466;SDS011;4270;48.148;11.648;2022-09-06T05:24:37;6.20;;;5.63;;
8466;SDS011;4270;48.148;11.648;2022-09-06T05:27:02;5.93;;;5.30;;
8466;SDS011;4270;48.148;11.648;2022-09-06T05:29:29;8.97;;;5.77;;
8466;SDS011;4270;48.148;11.648;2022-09-06T05:31:54;6.33;;;5.70;;
8466;SDS011;4270;48.148;11.648;2022-09-06T05:34:19;6.33;;;5.17;;
8466;SDS011;4270;48.148;11.648;2022-09-06T05:36:44;9.10;;;5.37;;
8466;SDS011;4270;48.148;11.648;2022-09-06T05:39:10;6.67;;;5.40;;
8466;SDS011;4270;48.148;11.648;2022-09-06T05:41:35;6.00;;;4.97;;
8466;SDS011;4270;48.148;11.648;2022-09-06T05:44:00;6.13;;;5.53;;
8466;SDS011;4270;48.148;11.648;2022-09-06T05:46:25;6.10;;;5.50;;
8466;SDS011;4270;48.148;11.648;2022-09-06T05:48:51;6.87;;;5.30;;
8466;SDS011;4270;48.148;11.648;2022-09-06T05:51:16;5.83;;;5.17;;
8466;SDS011;4270;48.148;11.648;2022-09-06T05:53:42;7.83;;;5.33;;
8466;SDS011;4270;48.148;11.648;2022-09-06T05:56:09;5.53;;;4.90;;
8466;SDS011;4270;48.148;11.648;2022-09-06T05:58:34;6.20;;;5.10;;
8466;SDS011;4270;48.148;11.648;2022-09-06T06:01:45;6.33;;;5.20;;
8466;SDS011;4270;48.148;11.648;2022-09-06T06:03:59;6.50;;;4.73;;
8466;SDS011;4270;48.148;11.648;2022-09-06T06:06:26;8.87;;;5.33;;
8466;SDS011;4270;48.148;11.648;2022-09-06T06:08:52;9.30;;;5.40;;
8466;SDS011;4270;48.148;11.648;2022-09-06T06:11:17;6.27;;;5.10;;
8466;SDS011;4270;48.148;11.648;2022-09-06T06:13:42;5.77;;;4.93;;
8466;SDS011;4270;48.148;11.648;2022-09-06T06:16:08;8.90;;;5.20;;
8466;SDS011;4270;48.148;11.648;2022-09-06T06:18:34;5.50;;;4.93;;
8466;SDS011;4270;48.148;11.648;2022-09-06T06:21:05;9.93;;;5.00;;
8466;SDS011;4270;48.148;11.648;2022-09-06T06:23:31;5.10;;;4.60;;
8466;SDS011;4270;48.148;11.648;2022-09-06T06:25:56;5.30;;;4.80;;
8466;SDS011;4270;48.148;11.648;2022-09-06T06:28:21;10.07;;;4.70;;
8466;SDS011;4270;48.148;11.648;2022-09-06T06:30:46;7.40;;;4.23;;
8466;SDS011;4270;48.148;11.648;2022-09-06T06:33:11;5.97;;;5.37;;
8466;SDS011;4270;48.148;11.648;2022-09-06T06:35:36;7.38;;;4.75;;
8466;SDS011;4270;48.148;11.648;2022-09-06T06:38:02;6.00;;;4.93;;
8466;SDS011;4270;48.148;11.648;2022-09-06T06:40:27;8.67;;;5.27;;
8466;SDS011;4270;48.148;11.648;2022-09-06T06:42:52;10.47;;;4.60;;
8466;SDS011;4270;48.148;11.648;2022-09-06T06:45:19;7.37;;;5.03;;
8466;SDS011;4270;48.148;11.648;2022-09-06T06:47:48;5.80;;;4.90;;
8466;SDS011;4270;48.148;11.648;2022-09-06T06:50:13;6.20;;;5.10;;
8466;SDS011;4270;48.148;11.648;2022-09-06T06:52:38;5.67;;;5.07;;
8466;SDS011;4270;48.148;11.648;2022-09-06T06:55:03;5.93;;;5.43;;
8466;SDS011;4270;48.148;11.648;2022-09-06T06:57:29;5.10;;;4.70;;
8466;SDS011;4270;48.148;11.648;2022-09-06T06:59:55;7.90;;;5.00;;
8466;SDS011;4270;48.148;11.648;2022-09-06T07:02:20;6.70;;;4.70;;
8466;SDS011;4270;48.148;11.648;2022-09-06T07:04:45;5.30;;;4.80;;
8466;SDS011;4270;48.148;11.648;2022-09-06T07:07:11;9.60;;;5.57;;
8466;SDS011;4270;48.148;11.648;2022-09-06T07:09:36;7.05;;;4.47;;
8466;SDS011;4270;48.148;11.648;2022-09-06T07:12:01;4.73;;;4.27;;
8466;SDS011;4270;48.148;11.648;2022-09-06T07:14:27;4.70;;;3.50;;
8466;SDS011;4270;48.148;11.648;2022-09-06T07:16:52;3.87;;;3.50;;
8466;SDS011;4270;48.148;11.648;2022-09-06T07:19:22;4.47;;;3.00;;
8466;SDS011;4270;48.148;11.648;2022-09-06T07:21:47;3.90;;;3.40;;
8466;SDS011;4270;48.148;11.648;2022-09-06T07:24:12;4.35;;;2.80;;
8466;SDS011;4270;48.148;11.648;2022-09-06T07:26:38;6.40;;;3.37;;
8466;SDS011;4270;48.148;11.648;2022-09-06T07:29:03;3.77;;;2.80;;
8466;SDS011;4270;48.148;11.648;2022-09-06T07:31:29;5.80;;;2.80;;
8466;SDS011;4270;48.148;11.648;2022-09-06T07:33:56;3.20;;;3.00;;
8466;SDS011;4270;48.148;11.648;2022-09-06T07:36:21;7.97;;;3.07;;
8466;SDS011;4270;48.148;11.648;2022-09-06T07:38:47;7.90;;;3.00;;
8466;SDS011;4270;48.148;11.648;2022-09-06T07:41:13;5.20;;;2.87;;
8466;SDS011;4270;48.148;11.648;2022-09-06T07:43:38;4.72;;;2.85;;
8466;SDS011;4270;48.148;11.648;2022-09-06T07:46:21;6.97;;;3.03;;
8466;SDS011;4270;48.148;11.648;2022-09-06T07:48:46;2.50;;;2.10;;
8466;SDS011;4270;48.148;11.648;2022-09-06T07:51:12;6.17;;;2.20;;
8466;SDS011;4270;48.148;11.648;2022-09-06T07:53:39;4.93;;;2.40;;
8466;SDS011;4270;48.148;11.648;2022-09-06T07:56:05;2.93;;;2.00;;
8466;SDS011;4270;48.148;11.648;2022-09-06T07:58:31;3.40;;;2.30;;
8466;SDS011;4270;48.148;11.648;2022-09-06T08:03:40;7.37;;;2.63;;
8466;SDS011;4270;48.148;11.648;2022-09-06T08:06:05;8.20;;;2.73;;
8466;SDS011;4270;48.148;11.648;2022-09-06T08:08:30;2.80;;;2.10;;
8466;SDS011;4270;48.148;11.648;2022-09-06T08:10:56;8.60;;;3.17;;
8466;SDS011;4270;48.148;11.648;2022-09-06T08:13:21;4.75;;;2.75;;
8466;SDS011;4270;48.148;11.648;2022-09-06T08:15:46;3.70;;;2.70;;
8466;SDS011;4270;48.148;11.648;2022-09-06T08:18:11;2.80;;;2.33;;
8466;SDS011;4270;48.148;11.648;2022-09-06T08:20:36;2.40;;;2.20;;
8466;SDS011;4270;48.148;11.648;2022-09-06T08:23:01;5.30;;;2.10;;
8466;SDS011;4270;48.148;11.648;2022-09-06T08:25:32;1.93;;;1.80;;
8466;SDS011;4270;48.148;11.648;2022-09-06T08:27:57;3.60;;;2.20;;
8466;SDS011;4270;48.148;11.648;2022-09-06T08:30:23;4.72;;;2.40;;
8466;SDS011;4270;48.148;11.648;2022-09-06T08:32:48;2.47;;;1.90;;
8466;SDS011;4270;48.148;11.648;2022-09-06T08:35:13;5.53;;;2.37;;
8466;SDS011;4270;48.148;11.648;2022-09-06T08:37:38;4.53;;;1.90;;
8466;SDS011;4270;48.148;11.648;2022-09-06T08:40:03;2.92;;;2.35;;
8466;SDS011;4270;48.148;11.648;2022-09-06T08:42:29;4.50;;;2.40;;
8466;SDS011;4270;48.148;11.648;2022-09-06T08:44:55;5.53;;;2.30;;
8466;SDS011;4270;48.148;11.648;2022-09-06T08:47:22;3.23;;;2.13;;
8466;SDS011;4270;48.148;11.648;2022-09-06T08:49:49;3.53;;;2.30;;
8466;SDS011;4270;48.148;11.648;2022-09-06T08:54:46;2.50;;;1.87;;
8466;SDS011;4270;48.148;11.648;2022-09-06T08:59:40;4.10;;;1.90;;
8466;SDS011;4270;48.148;11.648;2022-09-06T09:02:11;2.00;;;1.80;;
8466;SDS011;4270;48.148;11.648;2022-09-06T09:04:41;4.50;;;1.60;;
8466;SDS011;4270;48.148;11.648;2022-09-06T09:07:12;3.20;;;1.80;;
8466;SDS011;4270;48.148;11.648;2022-09-06T09:09:38;2.43;;;1.90;;
8466;SDS011;4270;48.148;11.648;2022-09-06T09:12:03;3.05;;;1.67;;
8466;SDS011;4270;48.148;11.648;2022-09-06T09:14:30;2.97;;;1.40;;
8466;SDS011;4270;48.148;11.648;2022-09-06T09:17:02;5.17;;;1.50;;
8466;SDS011;4270;48.148;11.648;2022-09-06T09:19:28;1.90;;;1.20;;
8466;SDS011;4270;48.148;11.648;2022-09-06T09:21:57;4.00;;;1.90;;
8466;SDS011;4270;48.148;11.648;2022-09-06T09:24:22;2.50;;;1.60;;
8466;SDS011;4270;48.148;11.648;2022-09-06T09:27:23;5.23;;;1.50;;
8466;SDS011;4270;48.148;11.648;2022-09-06T09:29:55;10.53;;;1.90;;
8466;SDS011;4270;48.148;11.648;2022-09-06T09:32:30;2.20;;;1.30;;
8466;SDS011;4270;48.148;11.648;2022-09-06T09:37:39;5.10;;;1.60;;
8466;SDS011;4270;48.148;11.648;2022-09-06T09:40:04;2.13;;;1.23;;
8466;SDS011;4270;48.148;11.648;2022-09-06T09:42:31;3.20;;;1.75;;
8466;SDS011;4270;48.148;11.648;2022-09-06T09:44:58;2.65;;;1.40;;
8466;SDS011;4270;48.148;11.648;2022-09-06T09:47:24;3.90;;;1.98;;
8466;SDS011;4270;48.148;11.648;2022-09-06T09:49:51;5.40;;;2.10;;
8466;SDS011;4270;48.148;11.648;2022-09-06T09:52:17;4.07;;;1.80;;
8466;SDS011;4270;48.148;11.648;2022-09-06T09:54:47;2.92;;;1.80;;
8466;SDS011;4270;48.148;11.648;2022-09-06T09:57:17;2.08;;;1.67;;
8466;SDS011;4270;48.148;11.648;2022-09-06T09:59:43;1.70;;;1.40;;
8466;SDS011;4270;48.148;11.648;2022-09-06T10:05:00;1.95;;;1.60;;
8466;SDS011;4270;48.148;11.648;2022-09-06T10:07:25;1.85;;;1.75;;
8466;SDS011;4270;48.148;11.648;2022-09-06T10:09:57;2.15;;;1.60;;
8466;SDS011;4270;48.148;11.648;2022-09-06T10:12:28;2.63;;;1.85;;
8466;SDS011;4270;48.148;11.648;2022-09-06T10:14:54;2.03;;;1.70;;
8466;SDS011;4270;48.148;11.648;2022-09-06T10:17:21;2.70;;;1.60;;
8466;SDS011;4270;48.148;11.648;2022-09-06T10:19:51;2.70;;;1.50;;
8466;SDS011;4270;48.148;11.648;2022-09-06T10:22:22;4.53;;;1.85;;
8466;SDS011;4270;48.148;11.648;2022-09-06T10:27:25;2.00;;;1.90;;
8466;SDS011;4270;48.148;11.648;2022-09-06T10:30:00;2.10;;;1.83;;
8466;SDS011;4270;48.148;11.648;2022-09-06T10:35:14;2.77;;;1.80;;
8466;SDS011;4270;48.148;11.648;2022-09-06T10:40:12;4.53;;;1.80;;
8466;SDS011;4270;48.148;11.648;2022-09-06T10:42:48;3.00;;;1.63;;
8466;SDS011;4270;48.148;11.648;2022-09-06T10:45:15;3.07;;;1.50;;
8466;SDS011;4270;48.148;11.648;2022-09-06T10:53:06;4.80;;;1.70;;
8466;SDS011;4270;48.148;11.648;2022-09-06T10:55:34;2.13;;;1.77;;
8466;SDS011;4270;48.148;11.648;2022-09-06T10:58:01;3.57;;;1.70;;
8466;SDS011;4270;48.148;11.648;2022-09-06T11:00:30;1.87;;;1.57;;
8466;SDS011;4270;48.148;11.648;2022-09-06T11:05:58;1.93;;;1.70;;
8466;SDS011;4270;48.148;11.648;2022-09-06T11:11:07;3.70;;;1.97;;
8466;SDS011;4270;48.148;11.648;2022-09-06T11:13:34;3.33;;;1.70;;
8466;SDS011;4270;48.148;11.648;2022-09-06T11:16:04;2.67;;;1.70;;
8466;SDS011;4270;48.148;11.648;2022-09-06T11:18:45;3.27;;;1.87;;
8466;SDS011;4270;48.148;11.648;2022-09-06T11:23:53;2.57;;;1.90;;
8466;SDS011;4270;48.148;11.648;2022-09-06T11:28:52;3.90;;;1.90;;
8466;SDS011;4270;48.148;11.648;2022-09-06T11:31:23;2.70;;;1.97;;
8466;SDS011;4270;48.148;11.648;2022-09-06T11:33:59;5.00;;;2.30;;
8466;SDS011;4270;48.148;11.648;2022-09-06T11:38:54;3.40;;;1.87;;
8466;SDS011;4270;48.148;11.648;2022-09-06T11:41:20;4.60;;;1.80;;
8466;SDS011;4270;48.148;11.648;2022-09-06T11:43:51;4.03;;;2.23;;
8466;SDS011;4270;48.148;11.648;2022-09-06T11:51:40;3.47;;;1.87;;
8466;SDS011;4270;48.148;11.648;2022-09-06T12:02:04;5.50;;;2.50;;
8466;SDS011;4270;48.148;11.648;2022-09-06T12:07:14;4.00;;;2.00;;
8466;SDS011;4270;48.148;11.648;2022-09-06T12:09:42;3.93;;;2.00;;
8466;SDS011;4270;48.148;11.648;2022-09-06T12:12:08;3.50;;;2.20;;
8466;SDS011;4270;48.148;11.648;2022-09-06T12:14:37;4.00;;;2.30;;
8466;SDS011;4270;48.148;11.648;2022-09-06T12:27:14;3.87;;;2.07;;
8466;SDS011;4270;48.148;11.648;2022-09-06T12:29:46;2.90;;;1.90;;
8466;SDS011;4270;48.148;11.648;2022-09-06T12:32:15;6.27;;;2.40;;
8466;SDS011;4270;48.148;11.648;2022-09-06T12:34:43;6.10;;;2.30;;
8466;SDS011;4270;48.148;11.648;2022-09-06T12:37:08;5.00;;;2.10;;
8466;SDS011;4270;48.148;11.648;2022-09-06T12:39:35;5.00;;;2.67;;
8466;SDS011;4270;48.148;11.648;2022-09-06T12:42:09;6.10;;;2.67;;
8466;SDS011;4270;48.148;11.648;2022-09-06T12:44:42;4.23;;;2.20;;
8466;SDS011;4270;48.148;11.648;2022-09-06T12:47:09;5.70;;;2.27;;
8466;SDS011;4270;48.148;11.648;2022-09-06T12:49:35;5.87;;;2.93;;
8466;SDS011;4270;48.148;11.648;2022-09-06T12:52:07;5.60;;;2.13;;
8466;SDS011;4270;48.148;11.648;2022-09-06T12:54:40;3.50;;;2.40;;
8466;SDS011;4270;48.148;11.648;2022-09-06T12:57:38;7.67;;;2.73;;
8466;SDS011;4270;48.148;11.648;2022-09-06T12:59:56;8.03;;;2.50;;
8466;SDS011;4270;48.148;11.648;2022-09-06T13:02:26;7.20;;;2.53;;
8466;SDS011;4270;48.148;11.648;2022-09-06T13:05:04;8.70;;;2.10;;
8466;SDS011;4270;48.148;11.648;2022-09-06T13:07:29;8.33;;;2.50;;
8466;SDS011;4270;48.148;11.648;2022-09-06T13:09:56;9.23;;;2.77;;
8466;SDS011;4270;48.148;11.648;2022-09-06T13:12:26;9.97;;;2.93;;
8466;SDS011;4270;48.148;11.648;2022-09-06T13:14:52;7.77;;;2.97;;
8466;SDS011;4270;48.148;11.648;2022-09-06T13:17:25;9.33;;;3.03;;
8466;SDS011;4270;48.148;11.648;2022-09-06T13:19:50;4.17;;;2.50;;
8466;SDS011;4270;48.148;11.648;2022-09-06T13:22:35;5.53;;;2.87;;
8466;SDS011;4270;48.148;11.648;2022-09-06T13:25:01;8.73;;;2.57;;
8466;SDS011;4270;48.148;11.648;2022-09-06T13:32:20;5.43;;;2.50;;
8466;SDS011;4270;48.148;11.648;2022-09-06T13:34:48;5.43;;;2.70;;
8466;SDS011;4270;48.148;11.648;2022-09-06T13:37:16;10.23;;;2.67;;
8466;SDS011;4270;48.148;11.648;2022-09-06T13:39:42;7.27;;;2.63;;
8466;SDS011;4270;48.148;11.648;2022-09-06T13:42:22;6.63;;;2.90;;
8466;SDS011;4270;48.148;11.648;2022-09-06T13:44:48;6.57;;;2.83;;
8466;SDS011;4270;48.148;11.648;2022-09-06T13:47:14;10.03;;;2.37;;
8466;SDS011;4270;48.148;11.648;2022-09-06T13:49:40;7.30;;;3.27;;
8466;SDS011;4270;48.148;11.648;2022-09-06T13:52:05;7.40;;;2.13;;
8466;SDS011;4270;48.148;11.648;2022-09-06T13:54:32;4.90;;;2.43;;
8466;SDS011;4270;48.148;11.648;2022-09-06T13:56:57;5.67;;;3.00;;
8466;SDS011;4270;48.148;11.648;2022-09-06T13:59:22;8.47;;;2.67;;
8466;SDS011;4270;48.148;11.648;2022-09-06T14:01:49;7.37;;;3.63;;
8466;SDS011;4270;48.148;11.648;2022-09-06T14:04:18;5.13;;;2.93;;
8466;SDS011;4270;48.148;11.648;2022-09-06T14:06:45;7.60;;;2.63;;
8466;SDS011;4270;48.148;11.648;2022-09-06T14:09:10;5.40;;;2.40;;
8466;SDS011;4270;48.148;11.648;2022-09-06T14:11:36;5.67;;;2.30;;
8466;SDS011;4270;48.148;11.648;2022-09-06T14:14:01;7.93;;;2.70;;
8466;SDS011;4270;48.148;11.648;2022-09-06T14:16:27;10.20;;;2.97;;
8466;SDS011;4270;48.148;11.648;2022-09-06T14:18:52;7.17;;;3.30;;
8466;SDS011;4270;48.148;11.648;2022-09-06T14:21:17;7.97;;;2.57;;
8466;SDS011;4270;48.148;11.648;2022-09-06T14:23:46;5.37;;;2.70;;
8466;SDS011;4270;48.148;11.648;2022-09-06T14:26:11;8.63;;;2.70;;
8466;SDS011;4270;48.148;11.648;2022-09-06T14:28:37;6.20;;;2.70;;
8466;SDS011;4270;48.148;11.648;2022-09-06T14:31:12;7.60;;;3.08;;
8466;SDS011;4270;48.148;11.648;2022-09-06T14:33:38;5.10;;;2.20;;
8466;SDS011;4270;48.148;11.648;2022-09-06T14:36:04;7.73;;;2.77;;
8466;SDS011;4270;48.148;11.648;2022-09-06T14:38:30;11.43;;;2.67;;
8466;SDS011;4270;48.148;11.648;2022-09-06T14:41:00;7.60;;;3.00;;
8466;SDS011;4270;48.148;11.648;2022-09-06T14:43:26;6.90;;;2.60;;
8466;SDS011;4270;48.148;11.648;2022-09-06T14:45:51;8.30;;;2.70;;
8466;SDS011;4270;48.148;11.648;2022-09-06T14:48:16;9.60;;;3.00;;
8466;SDS011;4270;48.148;11.648;2022-09-06T14:50:41;6.40;;;2.50;;
8466;SDS011;4270;48.148;11.648;2022-09-06T14:53:06;5.87;;;2.70;;
8466;SDS011;4270;48.148;11.648;2022-09-06T14:55:31;5.60;;;2.57;;
8466;SDS011;4270;48.148;11.648;2022-09-06T14:57:57;3.83;;;2.10;;
8466;SDS011;4270;48.148;11.648;2022-09-06T15:00:22;7.33;;;2.87;;
8466;SDS011;4270;48.148;11.648;2022-09-06T15:02:48;6.83;;;2.60;;
8466;SDS011;4270;48.148;11.648;2022-09-06T15:05:13;11.07;;;3.00;;
8466;SDS011;4270;48.148;11.648;2022-09-06T15:07:38;8.53;;;2.60;;
8466;SDS011;4270;48.148;11.648;2022-09-06T15:10:03;7.80;;;2.88;;
8466;SDS011;4270;48.148;11.648;2022-09-06T15:12:29;5.77;;;2.90;;
8466;SDS011;4270;48.148;11.648;2022-09-06T15:14:54;9.70;;;2.87;;
8466;SDS011;4270;48.148;11.648;2022-09-06T15:17:19;11.27;;;3.20;;
8466;SDS011;4270;48.148;11.648;2022-09-06T15:19:44;5.20;;;2.37;;
8466;SDS011;4270;48.148;11.648;2022-09-06T15:22:09;6.23;;;2.60;;
8466;SDS011;4270;48.148;11.648;2022-09-06T15:24:35;6.70;;;3.13;;
8466;SDS011;4270;48.148;11.648;2022-09-06T15:27:00;5.33;;;3.00;;
8466;SDS011;4270;48.148;11.648;2022-09-06T15:29:26;8.87;;;2.67;;
8466;SDS011;4270;48.148;11.648;2022-09-06T15:31:51;7.50;;;2.60;;
8466;SDS011;4270;48.148;11.648;2022-09-06T15:34:17;6.53;;;2.80;;
8466;SDS011;4270;48.148;11.648;2022-09-06T15:36:42;9.07;;;3.03;;
8466;SDS011;4270;48.148;11.648;2022-09-06T15:39:07;8.90;;;3.20;;
8466;SDS011;4270;48.148;11.648;2022-09-06T15:41:34;5.10;;;2.73;;
8466;SDS011;4270;48.148;11.648;2022-09-06T15:44:00;6.03;;;2.50;;
8466;SDS011;4270;48.148;11.648;2022-09-06T15:49:00;11.83;;;3.83;;
8466;SDS011;4270;48.148;11.648;2022-09-06T15:51:26;5.30;;;3.20;;
8466;SDS011;4270;48.148;11.648;2022-09-06T15:53:52;5.40;;;2.90;;
8466;SDS011;4270;48.148;11.648;2022-09-06T15:56:17;7.97;;;3.00;;
8466;SDS011;4270;48.148;11.648;2022-09-06T15:58:43;4.13;;;2.83;;
8466;SDS011;4270;48.148;11.648;2022-09-06T16:03:38;7.53;;;2.73;;
8466;SDS011;4270;48.148;11.648;2022-09-06T16:06:08;6.03;;;3.13;;
8466;SDS011;4270;48.148;11.648;2022-09-06T16:08:34;9.03;;;2.97;;
8466;SDS011;4270;48.148;11.648;2022-09-06T16:10:59;6.53;;;2.73;;
8466;SDS011;4270;48.148;11.648;2022-09-06T16:13:30;7.73;;;2.63;;
8466;SDS011;4270;48.148;11.648;2022-09-06T16:15:55;4.30;;;2.20;;
8466;SDS011;4270;48.148;11.648;2022-09-06T16:18:21;8.77;;;3.00;;
8466;SDS011;4270;48.148;11.648;2022-09-06T16:20:47;9.77;;;2.80;;
8466;SDS011;4270;48.148;11.648;2022-09-06T16:23:12;4.13;;;2.17;;
8466;SDS011;4270;48.148;11.648;2022-09-06T16:25:38;9.17;;;2.50;;
8466;SDS011;4270;48.148;11.648;2022-09-06T16:28:03;5.00;;;2.45;;
8466;SDS011;4270;48.148;11.648;2022-09-06T16:30:28;8.27;;;2.72;;
8466;SDS011;4270;48.148;11.648;2022-09-06T16:32:53;7.00;;;2.70;;
8466;SDS011;4270;48.148;11.648;2022-09-06T16:35:18;8.27;;;3.20;;
8466;SDS011;4270;48.148;11.648;2022-09-06T16:37:43;5.63;;;2.58;;
8466;SDS011;4270;48.148;11.648;2022-09-06T16:40:09;7.23;;;2.80;;
8466;SDS011;4270;48.148;11.648;2022-09-06T16:42:34;4.33;;;2.57;;
8466;SDS011;4270;48.148;11.648;2022-09-06T16:45:00;4.17;;;2.50;;
8466;SDS011;4270;48.148;11.648;2022-09-06T16:47:25;9.67;;;2.53;;